Time;durP1;ratioP1;P1;durP2;ratioP2;P2;SDS_P1;SDS_P2;PMS_P1;PMS_P2;Temp;Humidity;BMP_temperature;BMP_pressure;BME280_temperature;BME280_humidity;BME280_pressure;Samples;Min_cycle;Max_cycle;Signal;HPM_P1;HPM_P2
2022/06/19 00:07:26;;;;;;;4.25;3.40;;;;;;;22.86;44.36;100700.03;20818471;27;97068;-75
2022/06/19 00:17:27;;;;;;;6.93;3.53;;;;;;;22.73;44.69;100699.34;20825410;27;98846;-76
2022/06/19 00:27:27;;;;;;;8.55;4.00;;;;;;;22.65;44.90;100692.03;20816007;27;99191;-75
2022/06/19 00:37:29;;;;;;;4.53;3.67;;;;;;;22.58;45.34;100680.28;20815693;27;98970;-75
2022/06/19 00:47:35;;;;;;;9.52;4.10;;;;;;;22.52;44.90;100673.66;20829556;27;102345;-75
2022/06/19 00:57:40;;;;;;;4.05;3.65;;;;;;;22.43;45.35;100672.59;20824253;27;97142;-75
2022/06/19 01:07:43;;;;;;;6.82;3.70;;;;;;;22.35;45.70;100667.91;20818332;27;97347;-74
2022/06/19 01:17:46;;;;;;;7.22;4.15;;;;;;;22.27;46.10;100658.91;20819925;27;98986;-75
2022/06/19 01:38:23;;;;;;;6.20;4.27;;;;;;;22.13;46.13;100657.31;20809600;27;97640;-75
2022/06/19 01:48:28;;;;;;;5.80;4.40;;;;;;;22.10;46.26;100657.56;20823155;27;98472;-77
2022/06/19 01:58:32;;;;;;;7.97;3.80;;;;;;;22.01;46.31;100656.50;20827503;27;100595;-76
2022/06/19 02:08:34;;;;;;;6.32;4.00;;;;;;;21.95;46.50;100646.38;20830688;27;98178;-75
2022/06/19 02:18:39;;;;;;;4.93;3.60;;;;;;;21.88;46.33;100633.69;20830347;27;102183;-76
2022/06/19 02:28:44;;;;;;;6.63;3.97;;;;;;;21.85;46.91;100636.56;20833461;27;101201;-76
2022/06/19 02:38:44;;;;;;;6.55;4.30;;;;;;;21.77;47.19;100644.22;20833520;27;99762;-76
2022/06/19 02:48:46;;;;;;;4.60;3.67;;;;;;;21.69;47.03;100633.41;20831661;27;98221;-76
2022/06/19 02:58:46;;;;;;;6.70;3.97;;;;;;;21.63;47.14;100623.31;20831307;27;98125;-80
2022/06/19 03:08:47;;;;;;;7.22;3.72;;;;;;;21.58;47.66;100621.03;20830893;27;99277;-79
2022/06/19 03:18:47;;;;;;;6.43;4.05;;;;;;;21.52;47.77;100619.69;20829418;27;99638;-79
2022/06/19 03:28:53;;;;;;;9.82;3.85;;;;;;;21.52;48.48;100613.56;20822923;27;98342;-78
2022/06/19 03:38:54;;;;;;;6.63;4.10;;;;;;;21.47;48.21;100611.28;20827093;27;97523;-79
2022/06/19 03:48:54;;;;;;;7.30;4.03;;;;;;;21.48;48.67;100622.66;20840425;27;97557;-78
2022/06/19 03:58:56;;;;;;;7.95;4.00;;;;;;;21.50;48.58;100621.59;20829385;27;98087;-78
2022/06/19 04:08:58;;;;;;;5.57;4.20;;;;;;;21.50;48.73;100616.31;20823621;27;97607;-79
2022/06/19 04:19:04;;;;;;;6.63;4.77;;;;;;;21.53;49.03;100607.34;20823727;27;99841;-79
2022/06/19 04:29:05;;;;;;;5.07;4.53;;;;;;;21.53;48.86;100609.97;20810609;27;103624;-78
2022/06/19 04:39:06;;;;;;;6.78;4.38;;;;;;;21.55;48.43;100606.25;20825018;27;101564;-78
2022/06/19 04:49:07;;;;;;;5.55;4.30;;;;;;;21.64;47.99;100622.38;20814836;27;100753;-78
2022/06/19 04:59:08;;;;;;;12.55;4.88;;;;;;;21.62;48.20;100622.50;20839583;27;97747;-77
2022/06/19 05:09:09;;;;;;;5.53;4.72;;;;;;;21.65;47.93;100630.16;20833128;27;102195;-76
2022/06/19 05:19:10;;;;;;;7.85;5.07;;;;;;;21.61;48.44;100633.16;20824250;27;97748;-75
2022/06/19 05:29:11;;;;;;;7.22;4.38;;;;;;;21.72;48.29;100628.75;20815237;27;97110;-76
2022/06/19 05:39:12;;;;;;;7.70;4.90;;;;;;;21.84;47.92;100632.25;20811610;27;97675;-75
2022/06/19 05:49:12;;;;;;;9.38;5.13;;;;;;;21.87;47.46;100637.28;20825417;27;97366;-75
2022/06/19 05:59:13;;;;;;;5.03;3.90;;;;;;;22.04;47.18;100635.16;20833302;27;97064;-75
2022/06/19 06:09:14;;;;;;;5.38;4.10;;;;;;;22.14;46.66;100627.34;20829935;27;97576;-75
2022/06/19 06:19:14;;;;;;;6.57;3.75;;;;;;;22.26;46.65;100634.31;20825678;27;97201;-77
2022/06/19 06:29:17;;;;;;;9.02;3.75;;;;;;;22.42;46.67;100638.44;20832222;27;99869;-78
2022/06/19 06:39:18;;;;;;;7.10;3.72;;;;;;;22.54;46.08;100645.38;20837230;27;97955;-78
2022/06/19 06:49:18;;;;;;;5.50;3.42;;;;;;;22.67;46.00;100634.69;20832463;27;97642;-77
2022/06/19 06:59:19;;;;;;;6.70;3.63;;;;;;;22.81;44.99;100630.94;20856228;27;98326;-78
2022/06/19 07:09:20;;;;;;;4.03;2.90;;;;;;;22.88;44.19;100633.94;20863067;27;97880;-80
2022/06/19 07:19:20;;;;;;;4.25;2.70;;;;;;;22.99;43.06;100629.44;20845876;27;101483;-78
2022/06/19 07:29:21;;;;;;;3.08;2.50;;;;;;;23.10;40.55;100622.44;20823303;27;97094;-78
2022/06/19 07:39:23;;;;;;;7.28;2.60;;;;;;;23.22;41.03;100623.25;20819279;27;97776;-77
2022/06/19 07:59:42;;;;;;;2.25;2.00;;;;;;;23.46;40.79;100608.03;20849365;27;101489;-78
2022/06/19 08:09:43;;;;;;;3.35;2.22;;;;;;;23.55;40.79;100595.84;20827464;27;97783;-78
2022/06/19 08:19:43;;;;;;;4.20;2.28;;;;;;;23.65;39.21;100583.50;20834853;27;100455;-86
2022/06/19 08:29:44;;;;;;;3.73;2.53;;;;;;;23.82;38.82;100573.31;20839768;27;97580;-85
2022/06/19 08:39:46;;;;;;;3.67;2.53;;;;;;;23.97;38.67;100576.47;20846346;27;97459;-85
2022/06/19 08:50:08;;;;;;;5.00;2.30;;;;;;;24.14;36.78;100572.34;20858559;27;101410;-84
2022/06/19 09:00:16;;;;;;;3.63;2.20;;;;;;;24.25;37.46;100568.75;20878350;27;98788;-84
2022/06/19 09:10:22;;;;;;;2.05;1.80;;;;;;;24.36;36.97;100578.41;20898787;27;97191;-83
2022/06/19 09:20:34;;;;;;;3.05;2.40;;;;;;;24.43;37.00;100550.44;20877440;27;98096;-84
2022/06/19 09:30:46;;;;;;;2.95;2.20;;;;;;;24.55;37.26;100538.75;20860007;27;97513;-82
2022/06/19 09:40:55;;;;;;;;;;;;;;;24.64;36.92;100542.38;20872899;27;99068;-81
2022/06/19 09:51:23;;;;;;;6.00;2.10;;;;;;;24.73;36.76;100535.44;20854589;27;97645;-80
2022/06/19 10:01:25;;;;;;;5.70;2.65;;;;;;;24.86;36.33;100520.09;20883479;27;99108;-79
2022/06/19 10:11:36;;;;;;;;;;;;;;;24.92;36.21;100510.78;20880988;27;97877;-78
2022/06/19 10:32:34;;;;;;;4.22;2.17;;;;;;;25.18;35.82;100494.28;20871539;27;97175;-79
2022/06/19 10:42:44;;;;;;;2.03;1.73;;;;;;;25.30;34.91;100474.56;20876170;27;99706;-78
2022/06/19 10:53:10;;;;;;;3.75;2.20;;;;;;;25.46;34.50;100468.69;20902347;27;97196;-78
2022/06/19 11:13:58;;;;;;;2.10;1.75;;;;;;;25.63;34.36;100439.75;20869732;27;97481;-79
2022/06/19 11:24:01;;;;;;;4.90;1.70;;;;;;;25.73;34.34;100443.16;20823857;27;99492;-75
2022/06/19 11:44:54;;;;;;;2.17;1.60;;;;;;;25.74;33.34;100428.94;20869642;27;96963;-81
2022/06/19 11:54:55;;;;;;;2.70;2.05;;;;;;;25.75;32.77;100412.03;20876743;27;97394;-81
2022/06/19 12:05:01;;;;;;;1.87;1.70;;;;;;;25.74;32.95;100413.03;20871837;27;97004;-81
2022/06/19 12:15:27;;;;;;;8.25;1.90;;;;;;;25.77;32.88;100401.28;20892987;27;97294;-80
2022/06/19 12:25:37;;;;;;;1.70;1.60;;;;;;;25.80;32.25;100391.19;20878474;27;98467;-81
2022/06/19 12:35:44;;;;;;;1.90;1.70;;;;;;;25.82;32.80;100377.81;20881470;27;98049;-81
2022/06/19 12:45:56;;;;;;;5.70;1.67;;;;;;;25.83;32.66;100368.84;20869081;27;99543;-81
2022/06/19 12:56:28;;;;;;;4.00;1.63;;;;;;;25.86;32.01;100344.69;20874799;27;97794;-81
2022/06/19 13:06:28;;;;;;;;;;;;;;;25.88;32.04;100348.84;20890703;27;97896;-81
2022/06/19 13:16:34;;;;;;;2.78;1.25;;;;;;;25.91;32.13;100309.75;20866664;27;101107;-81
2022/06/19 13:37:42;;;;;;;2.38;1.50;;;;;;;25.97;32.19;100293.22;20862484;27;101038;-82
2022/06/19 13:47:45;;;;;;;1.38;1.27;;;;;;;26.04;31.72;100288.97;20866354;27;99040;-82
2022/06/19 13:58:05;;;;;;;3.38;1.50;;;;;;;26.05;31.79;100275.56;20866589;27;97339;-82
2022/06/19 14:08:06;;;;;;;1.70;1.60;;;;;;;26.09;31.55;100270.81;20863175;27;97998;-82
2022/06/19 14:18:26;;;;;;;2.67;1.50;;;;;;;26.12;31.82;100243.97;20861133;27;98133;-82
2022/06/19 14:29:02;;;;;;;2.13;1.70;;;;;;;26.14;31.82;100226.06;20867870;27;97481;-83
2022/06/19 14:39:25;;;;;;;2.05;1.42;;;;;;;26.16;32.26;100210.81;20841454;27;97274;-82
2022/06/19 14:49:49;;;;;;;3.35;1.85;;;;;;;26.20;31.22;100212.16;20834744;27;97771;-80
2022/06/19 15:00:03;;;;;;;5.07;1.50;;;;;;;26.43;30.67;100194.88;20831085;27;100888;-76
2022/06/19 15:10:16;;;;;;;3.90;1.50;;;;;;;26.66;30.52;100180.03;20822729;27;98483;-76
2022/06/19 15:20:30;;;;;;;4.18;2.00;;;;;;;26.77;29.91;100178.94;20812612;27;97951;-75
2022/06/19 15:30:30;;;;;;;3.25;1.92;;;;;;;26.94;30.42;100166.53;20829797;27;98829;-81
2022/06/19 15:40:41;;;;;;;3.90;1.65;;;;;;;27.12;30.33;100149.63;20814635;27;101680;-79
2022/06/19 15:51:01;;;;;;;2.73;1.60;;;;;;;27.22;30.24;100137.03;20824765;27;102382;-73
2022/06/19 16:01:08;;;;;;;3.63;1.83;;;;;;;27.40;29.52;100115.56;20788197;27;101551;-78
2022/06/19 16:11:27;;;;;;;4.72;2.33;;;;;;;27.47;29.51;100111.28;20832895;27;97321;-79
2022/06/19 16:21:30;;;;;;;2.25;1.58;;;;;;;27.58;29.38;100103.97;20817456;27;97400;-75
2022/06/19 16:31:34;;;;;;;5.13;1.63;;;;;;;27.66;29.72;100103.13;20845754;27;98321;-76
2022/06/19 16:52:13;;;;;;;3.53;1.80;;;;;;;27.85;29.12;100104.59;20805051;27;100242;-78
2022/06/19 17:02:18;;;;;;;2.95;1.80;;;;;;;27.72;29.77;100097.13;20803169;27;98328;-78
2022/06/19 17:12:23;;;;;;;1.75;1.40;;;;;;;27.61;28.94;100083.19;20828651;27;101448;-79
2022/06/19 17:22:30;;;;;;;2.63;1.50;;;;;;;27.54;28.98;100076.03;20829455;27;97176;-77
2022/06/19 17:32:39;;;;;;;3.97;1.90;;;;;;;27.51;29.29;100071.06;20844280;27;98352;-79
2022/06/19 17:42:44;;;;;;;5.32;2.08;;;;;;;27.49;29.64;100060.63;20830423;27;98883;-80
2022/06/19 17:52:46;;;;;;;4.88;2.30;;;;;;;27.38;30.25;100056.44;20824081;27;99073;-77
2022/06/19 18:02:53;;;;;;;6.75;2.03;;;;;;;27.37;30.13;100056.59;20829321;27;98420;-77
2022/06/19 18:12:57;;;;;;;2.30;1.75;;;;;;;27.28;30.37;100050.44;20850742;27;100573;-78
2022/06/19 18:22:59;;;;;;;4.30;2.50;;;;;;;27.27;30.13;100054.09;20818053;27;97776;-78
2022/06/19 18:32:59;;;;;;;3.63;2.70;;;;;;;27.22;31.39;100051.13;20810811;27;101227;-77
2022/06/19 18:43:00;;;;;;;7.32;2.72;;;;;;;27.13;31.22;100063.59;20818557;27;97810;-78
2022/06/19 18:53:03;;;;;;;4.40;2.40;;;;;;;27.08;30.89;100057.94;20834405;27;97482;-80
2022/06/19 19:03:04;;;;;;;6.80;2.83;;;;;;;27.01;31.57;100068.41;20830064;27;101127;-78
2022/06/19 19:13:12;;;;;;;4.03;2.80;;;;;;;26.93;31.72;100071.88;20847903;27;97016;-80
2022/06/19 19:23:13;;;;;;;6.57;2.95;;;;;;;26.79;32.16;100086.66;20827854;27;101248;-79
2022/06/19 19:33:15;;;;;;;5.75;2.95;;;;;;;26.64;32.47;100080.28;20833536;27;97949;-78
2022/06/19 19:43:17;;;;;;;6.72;3.30;;;;;;;26.48;33.29;100086.38;20832231;27;98044;-79
2022/06/19 19:53:34;;;;;;;6.13;3.88;;;;;;;26.29;33.37;100080.34;20850799;27;97421;-80
2022/06/19 20:03:34;;;;;;;11.45;3.30;;;;;;;26.13;34.25;100083.75;20857653;27;98780;-80
2022/06/19 20:13:35;;;;;;;4.63;2.70;;;;;;;25.98;34.78;100077.34;20860245;27;98128;-80
2022/06/19 20:23:45;;;;;;;6.23;3.00;;;;;;;25.86;35.28;100079.44;20870338;27;96763;-80
2022/06/19 20:33:47;;;;;;;7.97;3.05;;;;;;;25.69;35.27;100076.69;20863912;27;97091;-81
2022/06/19 20:43:50;;;;;;;8.68;3.10;;;;;;;25.59;35.50;100075.16;20861213;27;97908;-80
2022/06/19 20:53:50;;;;;;;8.82;3.38;;;;;;;25.54;35.81;100078.25;20872335;27;97733;-81
2022/06/19 21:03:51;;;;;;;5.13;3.10;;;;;;;25.44;36.80;100072.19;20849103;27;97694;-80
2022/06/19 21:13:53;;;;;;;6.03;3.28;;;;;;;25.40;36.95;100077.81;20819668;27;97908;-80
2022/06/19 21:23:54;;;;;;;7.50;2.85;;;;;;;25.39;37.39;100092.06;20862188;27;97315;-80
2022/06/19 21:33:55;;;;;;;5.33;3.10;;;;;;;25.31;37.37;100083.19;20862206;27;97800;-81
2022/06/19 21:43:55;;;;;;;4.20;2.53;;;;;;;25.25;37.50;100081.97;20864436;27;97031;-81
2022/06/19 21:53:58;;;;;;;5.40;2.63;;;;;;;25.17;38.01;100087.19;20882142;27;98949;-80
2022/06/19 22:03:59;;;;;;;2.85;2.35;;;;;;;25.10;37.78;100094.94;20849368;27;97727;-80
2022/06/19 22:13:59;;;;;;;4.18;2.40;;;;;;;25.06;38.22;100088.25;20863301;27;97621;-80
2022/06/19 22:24:01;;;;;;;8.05;2.60;;;;;;;24.99;38.72;100081.94;20858969;27;99920;-80
2022/06/19 22:34:01;;;;;;;4.73;2.33;;;;;;;24.92;39.03;100065.78;20843227;27;100785;-80
2022/06/19 22:44:10;;;;;;;6.57;2.70;;;;;;;24.83;39.47;100072.84;20848536;27;96984;-79
2022/06/19 22:54:12;;;;;;;5.07;2.75;;;;;;;24.77;39.96;100076.09;20862715;27;96984;-80
2022/06/19 23:04:20;;;;;;;;;;;;;;;24.64;40.18;100062.34;20854233;27;98028;-80
2022/06/19 23:14:22;;;;;;;4.22;2.42;;;;;;;24.53;40.94;100058.91;20848338;27;96908;-80
2022/06/19 23:24:24;;;;;;;;;;;;;;;24.44;41.14;100065.13;20848210;27;97499;-80
2022/06/19 23:34:25;;;;;;;5.45;2.60;;;;;;;24.25;41.61;100056.28;20847581;27;101381;-80
2022/06/19 23:44:27;;;;;;;6.53;2.50;;;;;;;24.25;41.63;100034.31;20834106;27;97168;-80
2022/06/19 23:54:27;;;;;;;4.63;2.90;;;;;;;24.18;42.23;100043.81;20829427;27;100033;-79
